Time;durP1;ratioP1;P1;durP2;ratioP2;P2;SDS_P1;SDS_P2;PMS_P1;PMS_P2;Temp;Humidity;BMP_temperature;BMP_pressure;BME280_temperature;BME280_humidity;BME280_pressure;Samples;Min_cycle;Max_cycle;Signal;HPM_P1;HPM_P2
2023/01/08 00:01:03;;;;;;;6.38;3.53;;;6.30;99.90;;;;;;5069600;28;20213;-69
2023/01/08 00:03:29;;;;;;;5.93;3.90;;;6.30;99.90;;;;;;5070914;28;20217;-69
2023/01/08 00:06:00;;;;;;;5.07;4.10;;;6.30;99.90;;;;;;5070765;28;20595;-70
2023/01/08 00:08:27;;;;;;;5.45;3.72;;;6.30;99.90;;;;;;5069973;28;20590;-69
2023/01/08 00:10:55;;;;;;;4.80;3.63;;;6.20;99.90;;;;;;5070342;28;20201;-69
2023/01/08 00:13:22;;;;;;;7.70;4.32;;;6.20;99.90;;;;;;5070761;28;20227;-69
2023/01/08 00:15:50;;;;;;;4.57;4.05;;;6.20;99.90;;;;;;5070070;28;20224;-70
2023/01/08 00:18:16;;;;;;;5.65;3.85;;;6.20;99.90;;;;;;5070231;28;20590;-70
2023/01/08 00:20:43;;;;;;;4.63;3.53;;;6.20;99.90;;;;;;5070652;28;20212;-70
2023/01/08 00:23:11;;;;;;;5.28;4.60;;;6.20;99.90;;;;;;5069960;28;20216;-69
2023/01/08 00:25:38;;;;;;;6.55;4.25;;;6.20;99.90;;;;;;5070504;28;20716;-69
2023/01/08 00:28:05;;;;;;;4.68;3.30;;;6.20;99.90;;;;;;5070457;28;20200;-70
2023/01/08 00:30:31;;;;;;;3.97;3.40;;;6.20;99.90;;;;;;5069066;28;20201;-69
2023/01/08 00:32:59;;;;;;;5.85;4.13;;;6.20;99.90;;;;;;5070196;28;20224;-70
2023/01/08 00:35:26;;;;;;;3.20;2.90;;;6.20;99.90;;;;;;5071876;28;20200;-70
2023/01/08 00:37:53;;;;;;;4.88;3.40;;;6.20;99.90;;;;;;5071431;28;20207;-69
2023/01/08 00:40:20;;;;;;;4.43;4.00;;;6.20;99.90;;;;;;5071063;28;20201;-69
2023/01/08 00:42:46;;;;;;;4.95;3.83;;;6.20;99.90;;;;;;5071038;28;20200;-70
2023/01/08 00:45:13;;;;;;;4.47;3.85;;;6.20;99.90;;;;;;5071353;28;20816;-70
2023/01/08 00:47:40;;;;;;;5.05;4.00;;;6.10;99.90;;;;;;5070870;28;20235;-70
2023/01/08 00:50:09;;;;;;;3.80;3.50;;;6.20;99.90;;;;;;5070781;28;20247;-70
2023/01/08 00:52:36;;;;;;;5.53;4.00;;;6.10;99.90;;;;;;5070998;28;20231;-70
2023/01/08 00:55:02;;;;;;;3.95;3.40;;;6.10;99.90;;;;;;5070869;28;20701;-70
2023/01/08 00:57:33;;;;;;;4.78;3.55;;;6.10;99.90;;;;;;5070806;28;20227;-70
2023/01/08 00:59:59;;;;;;;3.85;3.45;;;6.10;99.90;;;;;;5070636;28;20587;-69
2023/01/08 01:02:27;;;;;;;3.67;3.20;;;6.10;99.90;;;;;;5070929;28;20196;-70
2023/01/08 01:04:53;;;;;;;3.83;3.47;;;6.10;99.90;;;;;;5070996;28;20235;-69
2023/01/08 01:07:22;;;;;;;6.78;3.90;;;6.10;99.90;;;;;;5070768;28;20220;-69
2023/01/08 01:09:48;;;;;;;6.10;3.72;;;6.10;99.90;;;;;;5070594;28;20204;-70
2023/01/08 01:12:15;;;;;;;4.00;3.35;;;6.10;99.90;;;;;;5070810;28;20251;-69
2023/01/08 01:14:42;;;;;;;4.38;3.15;;;6.20;99.90;;;;;;5070667;28;20200;-69
2023/01/08 01:17:10;;;;;;;3.85;3.28;;;6.10;99.90;;;;;;5070740;28;20703;-69
2023/01/08 01:19:37;;;;;;;3.33;3.03;;;6.10;99.90;;;;;;5069949;28;20207;-70
2023/01/08 01:22:04;;;;;;;5.05;3.92;;;6.10;99.90;;;;;;5070648;28;20215;-69
2023/01/08 01:24:33;;;;;;;3.80;3.45;;;6.00;99.90;;;;;;5070345;28;20196;-69
2023/01/08 01:27:00;;;;;;;4.40;3.80;;;6.00;99.90;;;;;;5070769;28;20220;-70
2023/01/08 01:29:27;;;;;;;5.05;3.00;;;6.00;99.90;;;;;;5070082;28;20230;-70
2023/01/08 01:31:53;;;;;;;5.32;4.00;;;6.00;99.90;;;;;;5070559;28;20587;-69
2023/01/08 01:34:20;;;;;;;6.40;4.25;;;6.00;99.90;;;;;;5070588;28;20211;-69
2023/01/08 01:36:47;;;;;;;4.63;3.60;;;6.00;99.90;;;;;;5070304;28;20224;-69
2023/01/08 01:39:13;;;;;;;5.70;3.75;;;6.00;99.90;;;;;;5070093;28;20204;-69
2023/01/08 01:41:44;;;;;;;4.72;3.40;;;6.00;99.90;;;;;;5069715;28;20202;-69
2023/01/08 01:44:42;;;;;;;3.90;3.50;;;6.00;99.90;;;;;;5049500;28;20204;-70
2023/01/08 01:47:20;;;;;;;3.72;3.05;;;5.90;99.90;;;;;;5048060;28;20232;-69
2023/01/08 01:49:52;;;;;;;3.65;3.25;;;6.00;99.90;;;;;;5049487;28;20200;-69
2023/01/08 01:52:21;;;;;;;4.80;3.78;;;6.00;99.90;;;;;;5050240;28;20221;-69
2023/01/08 01:54:48;;;;;;;5.10;3.55;;;6.00;99.90;;;;;;5050057;28;20254;-70
2023/01/08 01:57:16;;;;;;;3.92;3.55;;;6.10;99.90;;;;;;5050153;28;20225;-69
2023/01/08 01:59:45;;;;;;;3.40;3.05;;;6.10;99.90;;;;;;5049750;28;20212;-69
2023/01/08 02:02:12;;;;;;;3.45;2.88;;;6.20;99.90;;;;;;5050032;28;20208;-69
2023/01/08 02:04:38;;;;;;;3.78;3.40;;;6.20;99.90;;;;;;5050263;28;20688;-70
2023/01/08 02:07:12;;;;;;;3.40;3.10;;;6.30;99.90;;;;;;5049924;28;20227;-69
2023/01/08 02:09:47;;;;;;;4.15;2.95;;;6.40;99.90;;;;;;5049763;28;20208;-69
2023/01/08 02:12:23;;;;;;;3.42;2.40;;;6.40;99.90;;;;;;5049981;28;20564;-69
2023/01/08 02:15:00;;;;;;;6.45;2.85;;;6.50;99.90;;;;;;5049974;28;20208;-69
2023/01/08 02:17:34;;;;;;;4.22;2.90;;;6.60;99.90;;;;;;5050026;28;20696;-70
2023/01/08 02:20:07;;;;;;;2.97;2.60;;;6.70;99.90;;;;;;5049119;28;20200;-70
2023/01/08 02:22:51;;;;;;;3.28;2.97;;;6.70;99.90;;;;;;5050078;28;20691;-69
2023/01/08 02:25:30;;;;;;;3.05;2.78;;;6.80;99.90;;;;;;5049856;28;20201;-70
2023/01/08 02:28:01;;;;;;;4.25;3.15;;;6.80;99.90;;;;;;5049911;28;20244;-70
2023/01/08 02:30:29;;;;;;;4.40;3.50;;;6.80;99.90;;;;;;5049499;28;20205;-70
2023/01/08 02:32:56;;;;;;;4.13;2.95;;;6.90;99.90;;;;;;5049697;28;20228;-70
2023/01/08 02:35:23;;;;;;;4.35;2.70;;;6.80;99.90;;;;;;5049860;28;20704;-70
2023/01/08 02:37:49;;;;;;;4.47;3.47;;;6.80;99.90;;;;;;5049660;28;20200;-69
2023/01/08 02:40:30;;;;;;;4.15;3.10;;;6.80;99.90;;;;;;5049424;28;20201;-70
2023/01/08 02:43:04;;;;;;;4.10;3.70;;;6.80;99.90;;;;;;5050075;28;20197;-69
2023/01/08 02:45:40;;;;;;;4.18;2.50;;;6.70;99.90;;;;;;5049922;28;20208;-69
2023/01/08 02:48:11;;;;;;;4.28;3.88;;;6.70;99.90;;;;;;5049768;28;20205;-69
2023/01/08 02:50:41;;;;;;;4.38;3.05;;;6.80;99.90;;;;;;5049819;28;20212;-70
2023/01/08 02:53:13;;;;;;;4.68;3.25;;;6.70;99.90;;;;;;5049776;28;20225;-70
2023/01/08 02:55:42;;;;;;;4.57;3.13;;;6.60;99.90;;;;;;5052658;28;20722;-69
2023/01/08 02:58:12;;;;;;;3.75;3.10;;;6.60;99.90;;;;;;5053341;28;20228;-69
2023/01/08 03:00:40;;;;;;;5.38;3.65;;;6.40;99.90;;;;;;5053004;28;20699;-70
2023/01/08 03:03:10;;;;;;;5.65;3.60;;;6.40;99.90;;;;;;5053348;28;20201;-69
2023/01/08 03:05:40;;;;;;;4.43;4.03;;;6.20;99.90;;;;;;5053416;28;20880;-70
2023/01/08 03:08:08;;;;;;;4.35;3.47;;;6.10;99.90;;;;;;5053210;28;20309;-70
2023/01/08 03:10:37;;;;;;;4.88;3.78;;;6.00;99.90;;;;;;5053099;28;20209;-70
2023/01/08 03:13:08;;;;;;;4.22;3.25;;;6.00;99.90;;;;;;5052866;28;20220;-70
2023/01/08 03:15:43;;;;;;;3.97;3.08;;;5.90;99.90;;;;;;5053106;28;20197;-70
2023/01/08 03:18:13;;;;;;;5.35;3.50;;;5.80;99.90;;;;;;5052997;28;20197;-70
2023/01/08 03:20:41;;;;;;;5.72;4.72;;;5.80;99.90;;;;;;5052712;28;20232;-70
2023/01/08 03:23:11;;;;;;;5.25;3.80;;;5.70;99.90;;;;;;5053224;28;20216;-69
2023/01/08 03:25:42;;;;;;;3.92;3.20;;;5.70;99.90;;;;;;5052855;28;20224;-70
2023/01/08 03:28:13;;;;;;;4.18;2.95;;;5.70;99.90;;;;;;5052848;28;20208;-69
2023/01/08 03:30:43;;;;;;;5.65;3.60;;;5.60;99.90;;;;;;5052545;28;20206;-69
2023/01/08 03:33:12;;;;;;;3.60;3.10;;;5.60;99.90;;;;;;5052710;28;20221;-70
2023/01/08 03:35:41;;;;;;;3.45;3.15;;;5.60;99.90;;;;;;5052874;28;20225;-70
2023/01/08 03:38:20;;;;;;;4.47;3.50;;;5.60;99.90;;;;;;5052742;28;20587;-69
2023/01/08 03:40:51;;;;;;;4.43;2.97;;;5.70;99.90;;;;;;5052603;28;20201;-69
2023/01/08 03:43:18;;;;;;;4.85;3.15;;;5.80;99.90;;;;;;5052583;28;20205;-69
2023/01/08 03:45:59;;;;;;;3.78;3.03;;;5.90;99.90;;;;;;5052595;28;20220;-70
2023/01/08 03:48:29;;;;;;;3.90;2.90;;;6.00;99.90;;;;;;5052138;28;20208;-70
2023/01/08 03:50:55;;;;;;;2.47;2.13;;;6.00;99.90;;;;;;5052409;28;20201;-70
2023/01/08 03:53:22;;;;;;;6.35;3.20;;;6.10;99.90;;;;;;5052546;28;20339;-70
2023/01/08 03:55:49;;;;;;;4.28;2.80;;;6.20;99.90;;;;;;5052228;28;20601;-69
2023/01/08 03:58:15;;;;;;;3.38;2.70;;;6.30;99.90;;;;;;5052155;28;20561;-69
2023/01/08 04:00:42;;;;;;;3.53;2.75;;;6.30;99.90;;;;;;5052098;28;20232;-69
2023/01/08 04:03:10;;;;;;;2.80;2.42;;;6.40;99.90;;;;;;5052381;28;20201;-69
2023/01/08 04:05:37;;;;;;;3.35;2.55;;;6.40;99.90;;;;;;5052886;28;20229;-69
2023/01/08 04:08:04;;;;;;;4.43;2.70;;;6.50;99.90;;;;;;5052180;28;20220;-69
2023/01/08 04:10:30;;;;;;;2.72;2.53;;;6.60;99.90;;;;;;5052099;28;20204;-69
2023/01/08 04:12:57;;;;;;;3.28;1.92;;;6.60;99.90;;;;;;5051718;28;20884;-69
2023/01/08 04:15:24;;;;;;;4.18;2.67;;;6.70;99.90;;;;;;5052093;28;20209;-70
2023/01/08 04:17:51;;;;;;;3.05;2.53;;;6.80;99.90;;;;;;5051951;28;20207;-69
2023/01/08 04:20:19;;;;;;;2.92;2.38;;;6.90;99.90;;;;;;5051380;28;20209;-69
2023/01/08 04:22:45;;;;;;;4.32;2.78;;;6.90;99.90;;;;;;5051949;28;20201;-69
2023/01/08 04:25:12;;;;;;;2.95;2.40;;;7.00;99.90;;;;;;5051914;28;20205;-69
2023/01/08 04:27:39;;;;;;;2.55;2.35;;;7.10;99.90;;;;;;5051969;28;20229;-70
2023/01/08 04:30:06;;;;;;;3.05;2.50;;;7.30;99.90;;;;;;5051283;28;20201;-69
2023/01/08 04:32:33;;;;;;;4.15;2.75;;;7.40;99.90;;;;;;5051415;28;20695;-69
2023/01/08 04:35:00;;;;;;;3.15;2.45;;;7.50;99.90;;;;;;5051918;28;20205;-70
2023/01/08 04:37:28;;;;;;;4.30;3.53;;;7.50;99.90;;;;;;5051297;28;20735;-70
2023/01/08 04:39:54;;;;;;;2.60;2.40;;;7.60;99.90;;;;;;5050968;28;20205;-70
2023/01/08 04:42:21;;;;;;;2.38;2.17;;;7.60;99.90;;;;;;5051580;28;20201;-70
2023/01/08 04:44:48;;;;;;;3.45;2.65;;;7.60;99.90;;;;;;5051253;28;20204;-70
2023/01/08 04:47:15;;;;;;;2.58;2.33;;;7.60;99.90;;;;;;5051524;28;20224;-70
2023/01/08 04:49:41;;;;;;;3.10;2.30;;;7.70;99.90;;;;;;5050642;28;20208;-70
2023/01/08 04:52:08;;;;;;;4.00;2.60;;;7.70;99.90;;;;;;5051398;28;20209;-70
2023/01/08 04:54:36;;;;;;;2.88;2.25;;;7.80;99.90;;;;;;5051294;28;20228;-69
2023/01/08 04:57:03;;;;;;;2.55;2.25;;;7.90;99.90;;;;;;5051001;28;20767;-70
2023/01/08 04:59:29;;;;;;;2.80;2.50;;;8.00;99.90;;;;;;5050766;28;20212;-70
2023/01/08 05:01:56;;;;;;;4.45;2.35;;;8.00;99.90;;;;;;5050830;28;20205;-70
2023/01/08 05:04:23;;;;;;;2.53;2.03;;;8.10;99.90;;;;;;5051261;28;20228;-69
2023/01/08 05:06:50;;;;;;;2.30;2.00;;;8.10;99.90;;;;;;5050939;28;20276;-69
2023/01/08 05:09:17;;;;;;;3.03;1.98;;;8.10;99.90;;;;;;5050491;28;20204;-69
2023/01/08 05:11:45;;;;;;;1.58;1.48;;;8.10;99.90;;;;;;5051019;28;20209;-70
2023/01/08 05:14:11;;;;;;;1.63;1.52;;;8.10;99.90;;;;;;5050867;28;20248;-69
2023/01/08 05:16:38;;;;;;;1.90;1.60;;;8.10;99.90;;;;;;5050974;28;20236;-70
2023/01/08 05:19:05;;;;;;;3.70;1.55;;;8.10;99.90;;;;;;5050195;28;20204;-70
2023/01/08 05:21:31;;;;;;;3.65;1.88;;;8.10;99.90;;;;;;5050755;28;20208;-70
2023/01/08 05:23:58;;;;;;;1.63;1.52;;;8.10;99.90;;;;;;5050774;28;20204;-70
2023/01/08 05:26:25;;;;;;;1.13;1.00;;;8.10;99.90;;;;;;5050326;28;20275;-70
2023/01/08 05:28:53;;;;;;;2.53;2.00;;;8.00;99.90;;;;;;5050201;28;20205;-70
2023/01/08 05:31:20;;;;;;;1.90;1.70;;;8.00;99.90;;;;;;5050497;28;20694;-69
2023/01/08 05:33:47;;;;;;;2.13;1.65;;;8.00;99.90;;;;;;5050628;28;20228;-70
2023/01/08 05:36:14;;;;;;;1.60;1.50;;;8.00;99.90;;;;;;5050607;28;20232;-70
2023/01/08 05:38:41;;;;;;;1.92;1.70;;;8.00;99.90;;;;;;5049920;28;20205;-69
2023/01/08 05:41:08;;;;;;;1.98;1.48;;;8.00;99.90;;;;;;5050515;28;20209;-69
2023/01/08 05:43:35;;;;;;;1.88;1.48;;;8.10;99.90;;;;;;5050361;28;20197;-69
2023/01/08 05:46:04;;;;;;;1.92;1.73;;;8.00;99.90;;;;;;5050349;28;20221;-69
2023/01/08 05:48:33;;;;;;;3.55;1.55;;;8.00;99.90;;;;;;5049885;28;20299;-69
2023/01/08 05:50:59;;;;;;;2.28;1.40;;;8.00;99.90;;;;;;5050113;28;20213;-69
2023/01/08 05:53:26;;;;;;;1.45;1.30;;;7.90;99.90;;;;;;5050409;28;20243;-70
2023/01/08 05:55:58;;;;;;;1.20;1.10;;;7.90;99.90;;;;;;5050112;28;20228;-70
2023/01/08 05:58:26;;;;;;;3.20;1.33;;;7.80;99.90;;;;;;5049855;28;20707;-69
2023/01/08 06:00:52;;;;;;;2.08;1.90;;;7.80;99.90;;;;;;5050389;28;20293;-69
2023/01/08 06:03:22;;;;;;;1.48;1.30;;;7.70;99.90;;;;;;5050280;28;20299;-69
2023/01/08 06:05:48;;;;;;;2.28;1.77;;;7.70;99.90;;;;;;5050208;28;20228;-69
2023/01/08 06:08:15;;;;;;;1.77;1.63;;;7.60;99.90;;;;;;5049952;28;20201;-69
2023/01/08 06:10:42;;;;;;;2.00;1.83;;;7.60;99.90;;;;;;5050011;28;20216;-69
2023/01/08 06:13:10;;;;;;;1.80;1.45;;;7.60;99.90;;;;;;5049977;28;20226;-71
2023/01/08 06:15:37;;;;;;;1.50;1.40;;;7.60;99.90;;;;;;5049993;28;20205;-69
2023/01/08 06:18:04;;;;;;;1.77;1.30;;;7.50;99.90;;;;;;5050184;28;20203;-70
2023/01/08 06:20:32;;;;;;;1.40;1.30;;;7.50;99.90;;;;;;5049071;28;20209;-69
2023/01/08 06:22:59;;;;;;;2.17;1.63;;;7.50;99.90;;;;;;5049357;28;20205;-69
2023/01/08 06:25:26;;;;;;;2.42;1.90;;;7.50;99.90;;;;;;5048990;28;20205;-69
2023/01/08 06:27:53;;;;;;;2.67;1.55;;;7.50;99.90;;;;;;5049076;28;20691;-70
2023/01/08 06:30:20;;;;;;;1.63;1.52;;;7.40;99.90;;;;;;5051177;28;20201;-69
2023/01/08 06:32:46;;;;;;;2.85;1.83;;;7.40;99.90;;;;;;5052377;28;20201;-69
2023/01/08 06:35:13;;;;;;;1.70;1.60;;;7.40;99.90;;;;;;5052735;28;20217;-68
2023/01/08 06:37:41;;;;;;;1.25;1.13;;;7.40;99.90;;;;;;5052383;28;21021;-70
2023/01/08 06:40:09;;;;;;;2.00;1.67;;;7.40;99.90;;;;;;5051991;28;20209;-70
2023/01/08 06:42:35;;;;;;;1.08;0.98;;;7.40;99.90;;;;;;5052692;28;20208;-69
2023/01/08 06:45:02;;;;;;;1.30;1.15;;;7.40;99.90;;;;;;5052282;28;20201;-69
2023/01/08 06:47:29;;;;;;;1.45;1.30;;;7.40;99.90;;;;;;5052364;28;20229;-69
2023/01/08 06:49:57;;;;;;;2.13;1.70;;;7.40;99.90;;;;;;5051762;28;20550;-69
2023/01/08 06:52:24;;;;;;;4.65;1.60;;;7.40;99.90;;;;;;5052450;28;20212;-70
2023/01/08 06:54:52;;;;;;;1.60;1.20;;;7.40;99.90;;;;;;5052290;28;20228;-69
2023/01/08 06:57:18;;;;;;;1.33;1.23;;;7.40;99.90;;;;;;5052220;28;20608;-70
2023/01/08 06:59:45;;;;;;;1.35;1.23;;;7.40;99.90;;;;;;5051715;28;20204;-70
2023/01/08 07:02:13;;;;;;;1.25;1.13;;;7.40;99.90;;;;;;5052160;28;20204;-70
2023/01/08 07:04:40;;;;;;;1.48;1.23;;;7.40;99.90;;;;;;5052258;28;20193;-70
2023/01/08 07:07:07;;;;;;;1.70;1.20;;;7.40;99.90;;;;;;5051917;28;20692;-69
2023/01/08 07:09:34;;;;;;;1.42;1.30;;;7.40;99.90;;;;;;5051586;28;20571;-70
2023/01/08 07:12:02;;;;;;;1.88;1.20;;;7.30;99.90;;;;;;5051928;28;20603;-68
2023/01/08 07:14:28;;;;;;;1.20;1.10;;;7.40;99.90;;;;;;5051960;28;20233;-70
2023/01/08 07:16:55;;;;;;;1.35;1.23;;;7.30;99.90;;;;;;5051880;28;20225;-70
2023/01/08 07:19:21;;;;;;;1.80;1.23;;;7.30;99.90;;;;;;5051509;28;20201;-70
2023/01/08 07:21:48;;;;;;;4.30;2.00;;;7.30;99.90;;;;;;5016905;28;1032063;-70
2023/01/08 07:24:15;;;;;;;1.25;1.00;;;7.30;99.90;;;;;;5053288;28;20756;-70
2023/01/08 07:26:41;;;;;;;2.10;1.30;;;7.30;99.90;;;;;;5055288;28;20549;-69
2023/01/08 07:29:09;;;;;;;1.60;1.00;;;7.30;99.90;;;;;;5072082;28;20204;-70
2023/01/08 07:31:36;;;;;;;1.10;1.00;;;7.20;99.90;;;;;;5072495;28;20196;-69
2023/01/08 07:34:03;;;;;;;1.48;1.20;;;7.20;99.90;;;;;;5072334;28;20216;-70
2023/01/08 07:36:29;;;;;;;1.90;1.20;;;7.20;99.90;;;;;;5069822;28;20212;-70
2023/01/08 07:38:56;;;;;;;1.45;1.25;;;7.20;99.90;;;;;;5071875;28;20200;-70
2023/01/08 07:41:23;;;;;;;1.85;1.45;;;7.20;99.90;;;;;;5072276;28;20575;-69
2023/01/08 07:43:50;;;;;;;1.20;0.93;;;7.20;99.90;;;;;;5073619;28;20200;-69
2023/01/08 07:46:18;;;;;;;1.10;1.00;;;7.20;99.90;;;;;;5073692;28;20224;-70
2023/01/08 07:48:44;;;;;;;1.02;0.93;;;7.10;99.90;;;;;;5073140;28;20200;-70
2023/01/08 07:51:11;;;;;;;1.48;1.00;;;7.10;99.90;;;;;;5073254;28;20211;-70
2023/01/08 07:53:38;;;;;;;1.10;1.00;;;7.20;99.90;;;;;;5072572;28;20201;-69
2023/01/08 07:56:07;;;;;;;1.15;1.05;;;7.20;99.90;;;;;;5072190;28;20248;-69
2023/01/08 07:58:33;;;;;;;1.45;1.35;;;7.20;99.90;;;;;;5071981;28;20204;-69
2023/01/08 08:01:01;;;;;;;1.20;1.10;;;7.20;99.90;;;;;;5072332;28;20215;-69
2023/01/08 08:03:29;;;;;;;0.80;0.70;;;7.20;99.90;;;;;;5072068;28;20200;-69
2023/01/08 08:05:56;;;;;;;1.10;1.00;;;7.10;99.90;;;;;;5072343;28;20217;-69
2023/01/08 08:08:22;;;;;;;1.05;0.95;;;7.20;99.90;;;;;;5071708;28;20200;-69
2023/01/08 08:10:49;;;;;;;1.58;1.30;;;7.10;99.90;;;;;;5072278;28;20227;-69
2023/01/08 08:13:16;;;;;;;1.27;1.10;;;7.10;99.90;;;;;;5072400;28;20197;-70
2023/01/08 08:15:42;;;;;;;2.20;1.20;;;7.10;99.90;;;;;;5072029;28;20232;-69
2023/01/08 08:18:10;;;;;;;1.40;0.90;;;7.10;99.90;;;;;;5071877;28;20211;-69
2023/01/08 08:20:38;;;;;;;1.27;1.17;;;7.10;99.90;;;;;;5071690;28;20208;-69
2023/01/08 08:23:07;;;;;;;1.33;1.23;;;7.10;99.90;;;;;;5071820;28;20196;-69
2023/01/08 08:25:34;;;;;;;1.50;1.40;;;7.00;99.90;;;;;;5071695;28;20575;-69
2023/01/08 08:28:01;;;;;;;1.40;1.30;;;7.00;99.90;;;;;;5071104;28;20470;-69
2023/01/08 08:30:30;;;;;;;1.08;0.98;;;7.00;99.90;;;;;;5071269;28;20200;-71
2023/01/08 08:32:59;;;;;;;2.15;1.65;;;7.00;99.90;;;;;;5071336;28;20207;-69
2023/01/08 08:35:25;;;;;;;1.30;1.10;;;7.00;99.90;;;;;;5071704;28;20231;-69
2023/01/08 08:37:54;;;;;;;1.65;1.13;;;7.00;99.90;;;;;;5071243;28;20968;-68
2023/01/08 08:40:20;;;;;;;1.20;1.10;;;7.00;99.90;;;;;;5071408;28;20604;-69
2023/01/08 08:42:47;;;;;;;1.25;1.10;;;7.00;99.90;;;;;;5071457;28;20196;-69
2023/01/08 08:45:14;;;;;;;1.60;1.30;;;7.00;99.90;;;;;;5071226;28;20192;-71
2023/01/08 08:47:40;;;;;;;1.67;1.52;;;7.10;99.90;;;;;;5069971;28;20587;-70
2023/01/08 08:50:08;;;;;;;1.58;1.33;;;7.00;99.90;;;;;;5067305;28;20205;-71
2023/01/08 08:52:36;;;;;;;1.48;1.30;;;7.10;99.90;;;;;;5071063;28;20525;-69
2023/01/08 08:55:05;;;;;;;1.42;1.33;;;7.10;99.90;;;;;;5071314;28;20600;-71
2023/01/08 08:57:32;;;;;;;2.75;1.48;;;7.10;99.90;;;;;;5070916;28;20270;-70
2023/01/08 08:59:59;;;;;;;1.75;1.48;;;7.10;99.90;;;;;;5070688;28;20205;-71
2023/01/08 09:02:26;;;;;;;2.38;1.58;;;7.20;99.90;;;;;;5071026;28;20230;-70
2023/01/08 09:04:52;;;;;;;2.20;1.30;;;7.10;99.90;;;;;;5070980;28;20219;-70
2023/01/08 09:07:19;;;;;;;1.48;1.38;;;7.20;99.90;;;;;;5070915;28;20254;-70
2023/01/08 09:09:46;;;;;;;1.80;1.50;;;7.20;99.90;;;;;;5070256;28;20196;-70
2023/01/08 09:12:14;;;;;;;2.75;1.80;;;7.20;99.90;;;;;;5071282;28;20208;-70
2023/01/08 09:14:41;;;;;;;1.67;1.38;;;7.20;99.90;;;;;;5071242;28;20584;-70
2023/01/08 09:17:08;;;;;;;1.50;1.40;;;7.20;99.90;;;;;;5070615;28;20227;-71
2023/01/08 09:19:34;;;;;;;1.40;1.23;;;7.20;99.90;;;;;;5070553;28;20200;-71
2023/01/08 09:22:01;;;;;;;1.70;1.42;;;7.30;99.90;;;;;;5071106;28;20223;-71
2023/01/08 09:24:31;;;;;;;1.73;1.63;;;7.30;99.90;;;;;;5071074;28;20201;-70
2023/01/08 09:26:57;;;;;;;1.70;1.10;;;7.40;99.90;;;;;;5068145;28;20797;-70
2023/01/08 09:29:26;;;;;;;1.33;1.10;;;7.30;99.90;;;;;;5068260;28;20458;-70
2023/01/08 09:31:52;;;;;;;1.33;1.23;;;7.40;99.90;;;;;;5070277;28;20810;-69
2023/01/08 09:34:19;;;;;;;1.17;1.05;;;7.40;99.90;;;;;;5070405;28;20223;-70
2023/01/08 09:36:46;;;;;;;2.53;1.40;;;7.40;99.90;;;;;;5070404;28;20228;-71
2023/01/08 09:39:13;;;;;;;4.20;1.40;;;7.50;99.90;;;;;;5069331;28;20204;-71
2023/01/08 09:41:43;;;;;;;2.20;1.25;;;7.60;99.90;;;;;;5070431;28;20208;-71
2023/01/08 09:44:15;;;;;;;1.48;1.30;;;7.60;99.90;;;;;;5070349;28;20571;-70
2023/01/08 09:46:44;;;;;;;3.03;1.38;;;7.60;99.90;;;;;;5070170;28;20248;-71
2023/01/08 09:49:19;;;;;;;1.27;1.17;;;7.60;99.90;;;;;;5069830;28;20574;-69
2023/01/08 09:51:46;;;;;;;1.40;1.30;;;7.60;99.90;;;;;;5069616;28;20207;-70
2023/01/08 09:54:16;;;;;;;1.60;1.15;;;7.60;99.90;;;;;;5070274;28;20200;-71
2023/01/08 09:56:44;;;;;;;1.80;1.10;;;7.60;99.90;;;;;;5067570;28;20229;-69
2023/01/08 09:59:15;;;;;;;1.75;1.10;;;7.60;99.90;;;;;;5069753;28;20211;-69
2023/01/08 10:01:44;;;;;;;1.02;0.93;;;7.70;99.90;;;;;;5062390;28;20679;-69
2023/01/08 10:04:16;;;;;;;1.85;1.20;;;7.70;99.90;;;;;;5048719;28;20592;-70
2023/01/08 10:06:50;;;;;;;1.98;1.55;;;7.70;99.90;;;;;;5049483;28;20259;-70
2023/01/08 10:09:16;;;;;;;1.23;1.10;;;7.80;99.90;;;;;;5050116;28;20863;-71
2023/01/08 10:11:46;;;;;;;1.33;1.08;;;7.80;99.90;;;;;;5049495;28;20224;-70
2023/01/08 10:14:21;;;;;;;1.42;1.02;;;7.90;99.90;;;;;;5050531;28;20209;-70
2023/01/08 10:16:53;;;;;;;1.40;1.30;;;8.00;99.90;;;;;;5049263;28;20712;-70
2023/01/08 10:19:20;;;;;;;1.42;1.20;;;8.00;99.90;;;;;;5049825;28;20209;-70
2023/01/08 10:21:47;;;;;;;1.13;1.00;;;8.00;99.90;;;;;;5051345;28;20228;-71
2023/01/08 10:24:13;;;;;;;1.50;0.98;;;8.00;99.90;;;;;;5069726;28;20207;-69
2023/01/08 10:26:40;;;;;;;1.00;0.88;;;8.00;99.90;;;;;;5069342;28;20595;-69
2023/01/08 10:29:09;;;;;;;2.15;1.10;;;8.00;99.90;;;;;;5069160;28;20200;-69
2023/01/08 10:31:47;;;;;;;2.22;1.10;;;8.10;99.90;;;;;;5069972;28;20196;-69
2023/01/08 10:34:25;;;;;;;1.27;1.10;;;8.10;99.90;;;;;;5067870;28;20201;-69
2023/01/08 10:36:53;;;;;;;1.50;1.30;;;8.10;99.90;;;;;;5069569;28;20706;-69
2023/01/08 10:39:23;;;;;;;1.02;0.93;;;8.10;99.90;;;;;;5069149;28;20709;-69
2023/01/08 10:41:52;;;;;;;1.10;1.00;;;8.10;99.90;;;;;;5069834;28;20258;-69
2023/01/08 10:44:22;;;;;;;1.15;1.00;;;8.10;99.90;;;;;;5070066;28;20201;-69
2023/01/08 10:46:53;;;;;;;1.20;0.93;;;8.20;99.90;;;;;;5069835;28;20227;-69
2023/01/08 10:49:28;;;;;;;2.00;1.27;;;8.20;99.90;;;;;;5069068;28;20207;-68
2023/01/08 10:51:55;;;;;;;1.13;1.02;;;8.30;99.90;;;;;;5068324;28;20204;-68
2023/01/08 10:54:35;;;;;;;1.40;1.10;;;8.30;99.90;;;;;;5066283;28;20236;-68
2023/01/08 10:57:02;;;;;;;1.10;1.00;;;8.30;99.90;;;;;;5066667;28;20250;-69
2023/01/08 10:59:29;;;;;;;1.20;1.10;;;8.30;99.90;;;;;;5065873;28;20205;-69
2023/01/08 11:01:58;;;;;;;1.17;0.93;;;8.30;99.90;;;;;;5066245;28;20208;-68
2023/01/08 11:04:32;;;;;;;1.10;1.00;;;8.40;99.90;;;;;;5066481;28;20232;-68
2023/01/08 11:07:01;;;;;;;1.83;1.10;;;8.40;99.90;;;;;;5065688;28;20220;-68
2023/01/08 11:09:31;;;;;;;1.23;1.00;;;8.50;99.90;;;;;;5065280;28;20215;-68
2023/01/08 11:11:59;;;;;;;2.05;1.30;;;8.50;99.90;;;;;;5065948;28;20208;-68
2023/01/08 11:14:30;;;;;;;1.65;1.13;;;8.60;99.90;;;;;;5066472;28;20216;-68
2023/01/08 11:16:58;;;;;;;1.00;0.90;;;8.70;99.90;;;;;;5069544;28;20221;-69
2023/01/08 11:19:29;;;;;;;1.63;0.90;;;8.80;99.90;;;;;;5064808;28;20828;-69
2023/01/08 11:21:58;;;;;;;1.00;0.90;;;8.90;99.90;;;;;;5063545;28;20621;-69
2023/01/08 11:24:29;;;;;;;1.30;1.10;;;8.90;99.90;;;;;;5063457;28;20204;-69
2023/01/08 11:27:01;;;;;;;1.55;1.10;;;8.90;99.90;;;;;;5058656;28;20221;-69
2023/01/08 11:29:37;;;;;;;1.25;1.08;;;9.00;99.90;;;;;;5066289;28;20240;-69
2023/01/08 11:32:24;;;;;;;0.93;0.80;;;9.00;99.90;;;;;;5066737;28;20204;-68
2023/01/08 11:34:59;;;;;;;1.00;0.90;;;9.00;99.90;;;;;;5068275;28;20227;-69
2023/01/08 11:37:28;;;;;;;1.05;0.95;;;9.00;99.90;;;;;;5068778;28;20246;-69
2023/01/08 11:39:56;;;;;;;1.30;1.13;;;9.00;99.90;;;;;;5068015;28;20690;-69
2023/01/08 11:43:01;;;;;;;1.33;1.02;;;9.10;99.90;;;;;;5068776;28;20224;-68
2023/01/08 11:45:37;;;;;;;1.38;1.27;;;9.10;99.90;;;;;;5068791;28;20254;-70
2023/01/08 11:48:35;;;;;;;1.80;0.80;;;9.20;99.90;;;;;;5068581;28;20204;-70
2023/01/08 11:51:29;;;;;;;1.23;1.13;;;9.30;99.90;;;;;;5068119;28;20791;-69
2023/01/08 11:54:06;;;;;;;1.05;0.95;;;9.30;99.90;;;;;;5068609;28;20215;-70
2023/01/08 11:56:48;;;;;;;1.20;1.00;;;9.30;99.90;;;;;;5067901;28;20232;-70
2023/01/08 11:59:22;;;;;;;1.20;1.10;;;9.20;99.90;;;;;;5068096;28;20277;-70
2023/01/08 12:01:58;;;;;;;1.40;0.88;;;9.20;99.90;;;;;;5068588;28;20204;-69
2023/01/08 12:04:55;;;;;;;1.02;0.95;;;9.10;99.90;;;;;;5066736;28;20208;-69
2023/01/08 12:07:29;;;;;;;1.02;0.90;;;9.10;99.90;;;;;;5068481;28;20232;-68
2023/01/08 12:10:04;;;;;;;1.75;1.00;;;9.00;99.90;;;;;;5061217;28;20283;-69
2023/01/08 12:12:46;;;;;;;1.10;0.90;;;9.00;99.90;;;;;;5061773;28;20215;-70
2023/01/08 12:15:19;;;;;;;1.20;1.05;;;9.00;99.90;;;;;;5068795;28;20227;-69
2023/01/08 12:18:05;;;;;;;1.23;1.10;;;9.10;99.90;;;;;;5067331;28;20253;-70
2023/01/08 12:20:37;;;;;;;2.03;1.40;;;9.10;99.90;;;;;;5064021;28;20633;-70
2023/01/08 12:23:17;;;;;;;1.00;0.90;;;9.00;99.90;;;;;;5067840;28;20223;-70
2023/01/08 12:26:03;;;;;;;1.50;0.90;;;9.00;99.90;;;;;;5067237;28;20710;-70
2023/01/08 12:28:56;;;;;;;1.10;1.00;;;9.00;99.90;;;;;;5069898;28;20201;-70
2023/01/08 12:31:32;;;;;;;1.60;1.23;;;9.00;99.90;;;;;;5066844;28;20736;-70
2023/01/08 12:34:06;;;;;;;0.80;0.80;;;9.10;99.90;;;;;;5071389;28;20196;-69
2023/01/08 12:36:39;;;;;;;1.20;1.10;;;9.10;99.90;;;;;;5071439;28;20224;-69
2023/01/08 12:39:12;;;;;;;1.20;1.00;;;9.10;99.90;;;;;;5070912;28;20204;-70
2023/01/08 12:41:41;;;;;;;2.50;1.20;;;9.10;99.90;;;;;;5071494;28;20200;-70
2023/01/08 12:44:11;;;;;;;1.10;0.98;;;9.10;99.90;;;;;;5071200;28;20579;-70
2023/01/08 12:46:41;;;;;;;0.85;0.80;;;9.10;99.90;;;;;;5071946;28;20561;-70
2023/01/08 12:49:13;;;;;;;1.17;1.08;;;9.20;99.90;;;;;;5070602;28;20208;-70
2023/01/08 12:51:50;;;;;;;1.10;0.95;;;9.20;99.90;;;;;;5071876;28;20617;-70
2023/01/08 12:54:29;;;;;;;1.10;1.00;;;9.20;99.90;;;;;;5071411;28;20200;-71
2023/01/08 12:57:06;;;;;;;1.10;1.00;;;9.20;99.90;;;;;;5071137;28;20239;-71
2023/01/08 12:59:42;;;;;;;1.10;1.00;;;9.20;99.90;;;;;;5071235;28;20204;-70
2023/01/08 13:02:23;;;;;;;1.42;1.00;;;9.30;99.90;;;;;;5071151;28;20579;-69
2023/01/08 13:04:50;;;;;;;1.20;1.10;;;9.30;99.90;;;;;;5071604;28;20536;-69
2023/01/08 13:07:20;;;;;;;1.80;1.13;;;9.20;99.90;;;;;;5067314;28;20220;-69
2023/01/08 13:09:54;;;;;;;1.83;1.27;;;9.20;99.90;;;;;;5067407;28;20197;-69